Time;durP1;ratioP1;P1;durP2;ratioP2;P2;SDS_P1;SDS_P2;PMS_P1;PMS_P2;Temp;Humidity;BMP_temperature;BMP_pressure;BME280_temperature;BME280_humidity;BME280_pressure;Samples;Min_cycle;Max_cycle;Signal;HPM_P1;HPM_P2
2021/07/11 00:01:57;;;;;;;;;6.25;5.00;;;;;20.30;62.21;101312.88;4886278;29;45318;-69
2021/07/11 00:04:23;;;;;;;;;7.75;7.75;;;;;20.29;62.40;101303.00;4898611;29;45535;-69
2021/07/11 00:06:48;;;;;;;;;7.00;7.00;;;;;20.28;62.10;101309.41;4886443;29;45524;-69
2021/07/11 00:09:13;;;;;;;;;7.50;6.25;;;;;20.28;62.38;101303.97;4886557;29;47342;-69
2021/07/11 00:11:39;;;;;;;;;6.25;6.25;;;;;20.27;62.26;101309.50;4897095;29;45334;-69
2021/07/11 00:14:04;;;;;;;;;8.00;8.00;;;;;20.26;62.14;101305.88;4886117;29;45373;-69
2021/07/11 00:16:32;;;;;;;;;7.25;6.75;;;;;20.22;62.13;101307.06;4886201;29;45472;-69
2021/07/11 00:18:58;;;;;;;;;6.50;6.50;;;;;20.26;62.20;101300.47;4885897;29;45430;-69
2021/07/11 00:21:23;;;;;;;;;6.50;6.25;;;;;20.26;62.27;101297.75;4886089;29;45341;-69
2021/07/11 00:23:49;;;;;;;;;6.75;5.50;;;;;20.25;62.23;101298.75;4886153;29;45976;-69
2021/07/11 00:26:14;;;;;;;;;5.00;5.00;;;;;20.25;62.18;101285.19;4886155;29;45530;-69
2021/07/11 00:28:39;;;;;;;;;4.75;3.25;;;;;20.22;62.41;101287.22;4886007;29;45393;-69
2021/07/11 00:31:05;;;;;;;;;2.75;2.75;;;;;20.23;62.85;101292.56;4885945;29;45301;-69
2021/07/11 00:33:30;;;;;;;;;2.50;2.50;;;;;20.20;62.66;101289.16;4885870;29;45373;-69
2021/07/11 00:35:56;;;;;;;;;2.00;2.00;;;;;20.19;62.82;101291.00;4886048;29;45465;-69
2021/07/11 00:38:21;;;;;;;;;2.00;2.00;;;;;20.12;62.20;101276.09;4885525;29;45327;-69
2021/07/11 00:40:47;;;;;;;;;3.00;3.00;;;;;20.21;62.34;101290.91;4885913;29;45424;-69
2021/07/11 00:43:13;;;;;;;;;2.00;1.00;;;;;20.20;62.42;101291.84;4885795;29;45358;-70
2021/07/11 00:45:38;;;;;;;;;2.00;2.00;;;;;20.20;62.57;101291.84;4885835;29;45597;-69
2021/07/11 00:48:04;;;;;;;;;3.00;3.00;;;;;20.16;62.30;101275.81;4884109;29;47065;-69
2021/07/11 00:50:30;;;;;;;;;1.00;1.00;;;;;20.21;62.57;101282.78;4895471;29;45436;-69
2021/07/11 00:52:56;;;;;;;;;1.00;1.00;;;;;20.18;62.06;101278.44;4885543;29;45395;-69
2021/07/11 00:55:23;;;;;;;;;1.00;1.00;;;;;20.16;62.12;101272.22;4885807;29;45170;-69
2021/07/11 00:57:49;;;;;;;;;0.50;0.50;;;;;20.13;62.33;101267.00;4885512;29;46050;-69
2021/07/11 01:00:15;;;;;;;;;2.00;1.50;;;;;20.14;62.36;101272.31;4885801;29;45462;-69
2021/07/11 01:02:51;;;;;;;;;1.00;1.00;;;;;20.13;62.38;101267.00;4886056;29;45260;-69
2021/07/11 01:05:17;;;;;;;;;1.00;1.00;;;;;20.02;62.18;101247.88;4884228;29;45267;-69
2021/07/11 01:08:02;;;;;;;;;0.75;0.75;;;;;20.11;62.32;101261.69;4887136;29;47352;-69
2021/07/11 01:10:40;;;;;;;;;2.00;1.00;;;;;20.12;62.29;101257.13;4887088;29;45466;-69
2021/07/11 01:13:10;;;;;;;;;1.00;1.00;;;;;20.10;62.34;101251.81;4898134;29;45328;-69
2021/07/11 01:15:37;;;;;;;;;1.00;1.00;;;;;20.13;62.18;101262.47;4885387;29;45385;-69
2021/07/11 01:18:06;;;;;;;;;0.00;0.00;;;;;20.10;61.89;101251.81;4885299;29;46317;-69
2021/07/11 01:20:34;;;;;;;;;1.25;0.75;;;;;20.11;62.18;101253.56;4884790;29;45436;-69
2021/07/11 01:23:01;;;;;;;;;1.00;1.00;;;;;20.09;62.44;101250.06;4885275;29;45322;-69
2021/07/11 01:25:48;;;;;;;;;1.00;1.00;;;;;20.04;62.33;101252.19;4885103;29;45401;-69
2021/07/11 01:28:19;;;;;;;;;2.50;1.50;;;;;20.03;62.73;101252.28;4885170;29;45431;-69
2021/07/11 01:30:47;;;;;;;;;1.50;1.50;;;;;20.01;62.26;101246.09;4884980;29;46121;-69
2021/07/11 01:33:15;;;;;;;;;1.50;1.00;;;;;19.96;62.48;101243.69;4885073;29;45334;-69
2021/07/11 01:35:41;;;;;;;;;1.00;1.00;;;;;19.94;62.49;101241.06;4884951;29;45216;-69
2021/07/11 01:38:08;;;;;;;;;1.00;1.00;;;;;19.95;62.38;101245.53;4884743;29;46191;-69
2021/07/11 01:40:34;;;;;;;;;0.00;0.00;;;;;19.94;62.63;101246.50;4891128;29;45444;-69
2021/07/11 01:43:01;;;;;;;;;1.00;1.00;;;;;19.94;62.65;101241.06;4891253;29;45499;-69
2021/07/11 01:45:28;;;;;;;;;1.50;0.50;;;;;19.92;62.69;101228.63;4885081;29;45249;-69
2021/07/11 01:47:54;;;;;;;;;1.00;1.00;;;;;19.90;62.84;101236.84;4884700;29;46162;-69
2021/07/11 01:50:19;;;;;;;;;0.50;0.50;;;;;19.88;62.78;101229.75;4885089;29;45572;-69
2021/07/11 01:52:46;;;;;;;;;1.00;1.00;;;;;19.89;62.83;101232.38;4885045;29;45343;-69
2021/07/11 01:55:12;;;;;;;;;1.00;1.00;;;;;19.88;62.94;101238.78;4884795;29;45346;-69
2021/07/11 01:57:38;;;;;;;;;0.50;0.50;;;;;19.87;62.68;101230.75;4884727;29;46360;-69
2021/07/11 02:00:10;;;;;;;;;0.75;0.75;;;;;19.87;62.80;101230.75;4884880;29;45474;-69
2021/07/11 02:02:35;;;;;;;;;1.00;1.00;;;;;19.85;62.95;101233.56;4884683;29;45345;-69
2021/07/11 02:05:06;;;;;;;;;0.25;0.25;;;;;19.83;62.89;101230.06;4896981;29;45245;-69
2021/07/11 02:07:32;;;;;;;;;2.00;0.00;;;;;19.85;62.97;101232.69;4884490;29;45461;-69
2021/07/11 02:09:57;;;;;;;;;1.00;1.00;;;;;19.83;63.04;101232.78;4891807;29;45395;-69
2021/07/11 02:12:24;;;;;;;;;0.00;0.00;;;;;19.83;62.93;101230.06;4889730;29;45251;-69
2021/07/11 02:14:53;;;;;;;;;1.00;1.00;;;;;19.80;62.72;101228.41;4884818;29;45258;-69
2021/07/11 02:17:26;;;;;;;;;1.00;0.75;;;;;19.80;62.95;101225.72;4884210;29;45466;-69
2021/07/11 02:19:52;;;;;;;;;1.00;1.00;;;;;19.82;62.98;101222.91;4884680;29;45440;-69
2021/07/11 02:22:19;;;;;;;;;1.00;1.00;;;;;19.79;62.98;101217.69;4884466;29;45439;-69
2021/07/11 02:24:46;;;;;;;;;1.00;0.50;;;;;19.71;62.56;101199.19;4893577;29;45425;-69
2021/07/11 02:27:12;;;;;;;;;0.75;0.75;;;;;19.81;63.04;101221.16;4890512;29;45465;-69
2021/07/11 02:29:41;;;;;;;;;1.00;1.00;;;;;19.80;62.98;101224.84;4893815;29;45464;-69
2021/07/11 02:32:09;;;;;;;;;1.00;1.00;;;;;19.79;62.93;101223.97;4885227;29;45448;-69
2021/07/11 02:34:36;;;;;;;;;1.00;1.00;;;;;19.77;63.37;101220.47;4887675;29;45340;-69
2021/07/11 02:37:03;;;;;;;;;1.50;1.50;;;;;19.77;63.22;101222.34;4887556;29;45353;-69
2021/07/11 02:39:30;;;;;;;;;1.00;1.00;;;;;19.77;63.30;101227.75;4887501;29;45254;-69
2021/07/11 02:42:02;;;;;;;;;1.00;1.00;;;;;19.76;63.07;101226.00;4887735;29;45451;-69
2021/07/11 02:44:28;;;;;;;;;1.25;1.25;;;;;19.71;62.90;101219.97;4887658;29;45503;-69
2021/07/11 02:47:01;;;;;;;;;1.00;1.00;;;;;19.76;63.47;101234.13;4887587;29;45315;-69
2021/07/11 02:49:29;;;;;;;;;4.00;1.00;;;;;19.76;63.21;101231.41;4887278;29;45394;-69
2021/07/11 02:51:58;;;;;;;;;1.00;1.00;;;;;19.76;63.31;101228.69;4887757;29;45254;-69
2021/07/11 02:54:31;;;;;;;;;2.00;1.50;;;;;19.76;63.44;101235.00;4887250;29;45246;-69
2021/07/11 02:57:02;;;;;;;;;1.00;1.00;;;;;19.76;63.30;101232.31;4887546;29;46422;-69
2021/07/11 02:59:28;;;;;;;;;2.00;1.00;;;;;19.77;63.35;101228.59;4887359;29;45612;-69
2021/07/11 03:01:54;;;;;;;;;2.00;1.00;;;;;19.77;63.42;101222.34;4887736;29;45402;-69
2021/07/11 03:04:22;;;;;;;;;1.00;1.00;;;;;19.75;63.71;101226.97;4899336;29;45234;-69
2021/07/11 03:06:47;;;;;;;;;2.00;2.00;;;;;19.75;63.62;101229.69;4887387;29;46124;-69
2021/07/11 03:09:12;;;;;;;;;3.00;1.00;;;;;19.73;63.63;101223.44;4888755;29;45436;-69
2021/07/11 03:11:42;;;;;;;;;1.00;1.00;;;;;19.68;63.66;101212.03;4898150;29;45297;-69
2021/07/11 03:14:09;;;;;;;;;1.00;1.00;;;;;19.73;63.99;101226.16;4887045;29;45383;-69
2021/07/11 03:16:40;;;;;;;;;1.00;1.00;;;;;19.74;63.77;101236.03;4887472;29;45301;-69
2021/07/11 03:19:06;;;;;;;;;2.00;1.00;;;;;19.77;63.41;101230.47;4886845;29;45622;-69
2021/07/11 03:21:31;;;;;;;;;2.00;2.00;;;;;19.78;63.78;101241.19;4887207;29;45316;-69
2021/07/11 03:23:57;;;;;;;;;2.00;1.00;;;;;19.78;63.60;101237.63;4886812;29;45427;-69
2021/07/11 03:26:23;;;;;;;;;2.00;2.00;;;;;19.79;63.55;101239.34;4887063;29;46271;-69
2021/07/11 03:28:50;;;;;;;;;2.00;2.00;;;;;19.77;63.95;101234.03;4886873;29;45217;-69
2021/07/11 03:31:17;;;;;;;;;1.00;1.00;;;;;19.78;63.75;101234.91;4887202;29;45169;-69
2021/07/11 03:33:52;;;;;;;;;0.75;0.75;;;;;19.74;63.61;101238.75;4886628;29;45156;-69
2021/07/11 03:36:20;;;;;;;;;1.00;1.00;;;;;19.72;63.69;101241.53;4886942;29;45490;-69
2021/07/11 03:38:50;;;;;;;;;1.75;1.75;;;;;19.73;63.73;101242.41;4886650;29;45535;-69
2021/07/11 03:41:19;;;;;;;;;1.00;1.00;;;;;19.72;63.58;101246.09;4886968;29;45337;-69
2021/07/11 03:43:52;;;;;;;;;1.25;1.25;;;;;19.71;63.74;101253.38;4886492;29;45516;-69
2021/07/11 03:46:21;;;;;;;;;2.00;2.00;;;;;19.70;63.79;101254.31;4886703;29;45384;-69
2021/07/11 03:48:51;;;;;;;;;1.00;1.00;;;;;19.71;63.62;101260.59;4894318;29;45407;-69
2021/07/11 03:51:21;;;;;;;;;2.00;2.00;;;;;19.68;63.78;101261.66;4890954;29;45326;-69
2021/07/11 03:53:47;;;;;;;;;1.75;1.75;;;;;19.65;63.62;101269.13;4886562;29;45362;-69
2021/07/11 03:56:14;;;;;;;;;3.00;0.75;;;;;19.63;63.78;101282.75;4886434;29;46069;-69
2021/07/11 03:58:41;;;;;;;;;1.25;1.00;;;;;19.51;63.90;101248.28;4886759;29;45327;-69
2021/07/11 04:01:07;;;;;;;;;1.00;1.00;;;;;19.58;63.99;101274.03;4898902;29;45422;-69
2021/07/11 04:03:40;;;;;;;;;1.00;1.00;;;;;19.56;64.13;101257.91;4893872;29;45219;-69
2021/07/11 04:06:10;;;;;;;;;2.00;2.00;;;;;19.53;64.20;101268.91;4890284;29;45167;-69
2021/07/11 04:08:38;;;;;;;;;2.00;2.00;;;;;19.53;63.65;101268.91;4886178;29;45324;-69
2021/07/11 04:11:04;;;;;;;;;2.25;2.25;;;;;19.52;63.87;101263.59;4899527;29;45415;-69
2021/07/11 04:13:30;;;;;;;;;2.00;2.00;;;;;19.54;64.26;101269.78;4886285;29;45569;-69
2021/07/11 04:16:02;;;;;;;;;1.00;1.00;;;;;19.55;64.26;101274.22;4886084;29;45268;-69
2021/07/11 04:18:28;;;;;;;;;1.25;1.25;;;;;19.53;63.91;101271.63;4886413;29;45488;-69
2021/07/11 04:20:57;;;;;;;;;0.75;0.75;;;;;19.55;64.24;101274.22;4886176;29;45325;-69
2021/07/11 04:23:29;;;;;;;;;3.50;2.00;;;;;19.56;64.41;101273.25;4886077;29;45317;-69
2021/07/11 04:25:56;;;;;;;;;2.00;2.00;;;;;19.54;64.29;101273.34;4885929;29;45354;-69
2021/07/11 04:28:22;;;;;;;;;2.75;2.75;;;;;19.52;64.48;101274.41;4886282;29;45410;-69
2021/07/11 04:30:48;;;;;;;;;1.25;1.25;;;;;19.48;64.67;101276.44;4898689;29;45525;-69
2021/07/11 04:33:14;;;;;;;;;2.00;2.00;;;;;19.43;64.79;101275.84;4885842;29;45381;-70
2021/07/11 04:35:40;;;;;;;;;1.75;1.75;;;;;19.40;64.70;101271.50;4885858;29;45997;-69
2021/07/11 04:38:05;;;;;;;;;2.00;2.00;;;;;19.42;64.71;101274.97;4885831;29;45538;-69
2021/07/11 04:40:31;;;;;;;;;2.25;1.75;;;;;19.38;64.92;101269.84;4898632;29;45241;-69
2021/07/11 04:42:56;;;;;;;;;2.75;2.75;;;;;19.44;64.67;101275.78;4885959;29;45395;-69
2021/07/11 04:45:22;;;;;;;;;3.50;3.25;;;;;19.45;64.77;101282.03;4885681;29;45360;-69
2021/07/11 04:47:47;;;;;;;;;2.75;1.75;;;;;19.42;64.95;101277.66;4885816;29;45610;-69
2021/07/11 04:50:13;;;;;;;;;3.25;2.00;;;;;19.42;64.93;101287.66;4885799;29;45335;-69
2021/07/11 04:52:39;;;;;;;;;2.25;2.25;;;;;19.46;65.09;101294.59;4885778;29;45549;-69
2021/07/11 04:55:10;;;;;;;;;3.25;2.50;;;;;19.44;64.90;101281.19;4884548;29;46405;-69
2021/07/11 04:57:35;;;;;;;;;4.75;4.00;;;;;19.46;64.88;101293.72;4885619;29;45439;-69
2021/07/11 05:00:05;;;;;;;;;4.00;3.25;;;;;19.47;64.91;101300.91;4886026;29;45311;-69
2021/07/11 05:02:30;;;;;;;;;3.00;1.50;;;;;19.50;65.06;101295.31;4885392;29;45339;-69
2021/07/11 05:04:55;;;;;;;;;3.00;2.00;;;;;19.48;64.86;101295.41;4903670;29;45256;-69
2021/07/11 05:07:21;;;;;;;;;2.00;2.00;;;;;19.46;65.07;101285.63;4892259;29;45261;-69
2021/07/11 05:09:46;;;;;;;;;2.00;2.00;;;;;19.44;65.22;101291.13;4891291;29;45286;-69
2021/07/11 05:12:11;;;;;;;;;2.25;2.25;;;;;19.40;64.92;101282.31;4892164;29;51009;-69
2021/07/11 05:14:37;;;;;;;;;3.00;3.00;;;;;19.44;65.04;101294.72;4885244;29;45975;-69
2021/07/11 05:17:02;;;;;;;;;2.75;2.75;;;;;19.46;65.20;101297.31;4886058;29;51567;-69
2021/07/11 05:19:28;;;;;;;;;3.00;3.00;;;;;19.44;64.89;101285.69;4885132;29;45484;-69
2021/07/11 05:21:53;;;;;;;;;3.00;3.00;;;;;19.45;65.14;101287.47;4884850;29;45663;-69
2021/07/11 05:24:18;;;;;;;;;4.00;4.00;;;;;19.48;65.05;101286.38;4886258;29;45801;-69
2021/07/11 05:26:43;;;;;;;;;2.50;2.50;;;;;19.48;65.06;101295.41;4885100;29;45303;-69
2021/07/11 05:29:09;;;;;;;;;2.25;2.25;;;;;19.47;65.01;101296.34;4886633;29;45317;-69
2021/07/11 05:31:34;;;;;;;;;2.75;2.25;;;;;19.42;65.08;101293.91;4885176;29;45324;-69
2021/07/11 05:33:59;;;;;;;;;4.00;2.00;;;;;19.45;65.32;101301.00;4884794;29;45488;-69
2021/07/11 05:36:25;;;;;;;;;2.00;2.00;;;;;19.40;65.35;101306.69;4885101;29;45248;-70
2021/07/11 05:38:50;;;;;;;;;2.00;2.00;;;;;19.39;65.40;101309.47;4884901;29;45247;-69
2021/07/11 05:41:16;;;;;;;;;2.50;2.50;;;;;19.38;65.55;101308.63;4885092;29;45316;-69
2021/07/11 05:43:41;;;;;;;;;2.25;2.25;;;;;19.40;65.53;101303.97;4884847;29;46140;-69
2021/07/11 05:46:07;;;;;;;;;3.00;3.00;;;;;19.41;65.59;101311.16;4884967;29;45351;-69
2021/07/11 05:48:32;;;;;;;;;3.00;3.00;;;;;19.43;65.22;101311.91;4884957;29;45261;-69
2021/07/11 05:50:57;;;;;;;;;3.75;2.75;;;;;19.43;65.38;101300.22;4885379;29;45309;-69
2021/07/11 05:53:23;;;;;;;;;3.00;3.00;;;;;19.39;65.10;101291.38;4896687;29;45333;-69
2021/07/11 05:55:49;;;;;;;;;2.50;2.50;;;;;19.37;65.29;101293.31;4884792;29;45382;-69
2021/07/11 05:58:14;;;;;;;;;3.75;3.00;;;;;19.28;65.29;101279.47;4884944;29;45179;-69
2021/07/11 06:00:39;;;;;;;;;2.50;2.50;;;;;19.40;65.41;101303.13;4895946;29;45469;-69
2021/07/11 06:03:05;;;;;;;;;2.75;2.75;;;;;19.41;65.52;101303.03;4891343;29;45891;-65
2021/07/11 06:05:30;;;;;;;;;2.00;2.00;;;;;19.40;65.38;101290.44;4892856;29;45329;-65
2021/07/11 06:07:55;;;;;;;;;2.00;2.00;;;;;19.47;65.47;101307.19;4883996;29;46004;-65
2021/07/11 06:10:21;;;;;;;;;3.00;3.00;;;;;19.48;65.12;101308.94;4894846;29;45238;-65
2021/07/11 06:12:46;;;;;;;;;3.00;2.50;;;;;19.49;65.28;101310.66;4889721;29;45519;-65
2021/07/11 06:15:12;;;;;;;;;2.00;2.00;;;;;19.50;65.04;101300.72;4892431;29;45437;-65
2021/07/11 06:17:37;;;;;;;;;2.25;2.25;;;;;19.49;65.08;101302.53;4884496;29;45251;-65
2021/07/11 06:20:06;;;;;;;;;4.25;3.00;;;;;19.53;65.00;101295.09;4896872;29;45225;-65
2021/07/11 06:22:32;;;;;;;;;3.25;3.25;;;;;19.52;65.13;101299.66;4893150;29;46129;-65
2021/07/11 06:24:57;;;;;;;;;3.25;3.25;;;;;19.54;64.93;101308.53;4895492;29;45470;-65
2021/07/11 06:27:23;;;;;;;;;2.25;2.25;;;;;19.55;65.24;101307.59;4898464;29;45371;-65
2021/07/11 06:29:48;;;;;;;;;3.00;3.00;;;;;19.55;64.80;101315.72;4902241;29;45236;-65
2021/07/11 06:32:14;;;;;;;;;2.50;2.50;;;;;19.56;65.07;101317.47;4878791;29;48065;-65
2021/07/11 06:34:39;;;;;;;;;3.50;3.00;;;;;19.53;64.85;101306.81;4888332;29;45787;-65
2021/07/11 06:37:05;;;;;;;;;2.50;2.50;;;;;19.54;64.88;101319.38;4889263;29;45224;-65
2021/07/11 06:39:30;;;;;;;;;2.50;2.50;;;;;19.53;64.62;101305.91;4896946;29;45579;-65
2021/07/11 06:41:55;;;;;;;;;2.00;2.00;;;;;19.52;64.92;101305.06;4889955;29;46510;-65
2021/07/11 06:44:21;;;;;;;;;3.00;2.25;;;;;19.52;64.68;101313.19;4895581;29;45265;-65
2021/07/11 06:46:46;;;;;;;;;3.25;3.00;;;;;19.52;64.86;101310.47;4884123;29;45456;-66
2021/07/11 06:49:11;;;;;;;;;4.00;3.00;;;;;19.51;64.80;101308.75;4894823;29;45471;-65
2021/07/11 06:51:37;;;;;;;;;3.00;3.00;;;;;19.52;64.99;101302.34;4884015;29;46095;-65
2021/07/11 06:54:02;;;;;;;;;3.00;3.00;;;;;19.54;64.90;101303.13;4896335;29;45315;-65
2021/07/11 06:56:28;;;;;;;;;2.50;2.50;;;;;19.57;65.13;101296.66;4884656;29;45374;-65
2021/07/11 06:58:53;;;;;;;;;3.00;3.00;;;;;19.58;64.71;101304.69;4888475;29;45403;-65
2021/07/11 07:01:19;;;;;;;;;3.25;3.25;;;;;19.59;64.82;101303.72;4883949;29;46010;-65
2021/07/11 07:03:44;;;;;;;;;2.00;2.00;;;;;19.59;64.56;101303.72;4896306;29;45466;-65
2021/07/11 07:06:09;;;;;;;;;2.00;2.00;;;;;19.62;64.69;101299.97;4902465;29;45704;-66
2021/07/11 07:08:35;;;;;;;;;3.75;3.75;;;;;19.59;64.77;101303.72;4888203;29;45473;-65
2021/07/11 07:11:01;;;;;;;;;4.25;4.25;;;;;19.56;64.57;101297.63;4893629;29;46189;-66
2021/07/11 07:13:26;;;;;;;;;4.50;4.50;;;;;19.55;64.69;101301.31;4898932;29;45488;-65
2021/07/11 07:15:51;;;;;;;;;6.00;6.00;;;;;19.56;64.50;101312.06;4884082;29;45318;-65
2021/07/11 07:18:17;;;;;;;;;5.75;5.00;;;;;19.54;64.80;101311.25;4897534;29;47061;-65
2021/07/11 07:20:42;;;;;;;;;5.75;5.75;;;;;19.57;64.50;101313.78;4896997;29;45479;-66
2021/07/11 07:23:07;;;;;;;;;7.00;5.75;;;;;19.61;64.70;101317.16;4889628;29;45548;-66
2021/07/11 07:25:33;;;;;;;;;5.00;5.00;;;;;19.60;64.55;101324.41;4887145;29;45333;-66
2021/07/11 07:27:58;;;;;;;;;4.00;4.00;;;;;19.56;64.50;101306.63;4886909;29;45338;-66
2021/07/11 07:30:24;;;;;;;;;6.00;6.00;;;;;19.65;64.62;101323.28;4885768;29;45312;-66
2021/07/11 07:32:50;;;;;;;;;5.00;5.00;;;;;19.64;64.48;101316.97;4894137;29;45329;-66
2021/07/11 07:35:17;;;;;;;;;6.75;5.00;;;;;19.66;64.42;101320.47;4895949;29;45285;-66
2021/07/11 07:37:43;;;;;;;;;4.50;4.50;;;;;19.65;64.44;101316.03;4899698;29;45480;-66
2021/07/11 07:40:09;;;;;;;;;3.25;3.25;;;;;19.59;64.41;101314.53;4889740;29;47025;-66
2021/07/11 07:42:35;;;;;;;;;4.50;4.25;;;;;19.59;64.62;101308.25;4885470;29;45356;-69
2021/07/11 07:45:00;;;;;;;;;4.25;4.25;;;;;19.66;64.90;101327.72;4887889;29;45428;-69
2021/07/11 07:47:27;;;;;;;;;5.75;5.50;;;;;19.64;64.46;101333.22;4896543;29;45539;-70
2021/07/11 07:49:52;;;;;;;;;4.00;4.00;;;;;19.64;64.62;101327.81;4898315;29;46073;-70
2021/07/11 07:52:18;;;;;;;;;3.50;3.50;;;;;19.65;64.64;101328.69;4885326;29;45392;-70
2021/07/11 07:54:44;;;;;;;;;3.00;3.00;;;;;19.68;64.41;101333.91;4885577;29;45495;-70
2021/07/11 07:57:09;;;;;;;;;3.75;3.75;;;;;19.72;64.40;101327.34;4899237;29;45649;-69
2021/07/11 07:59:34;;;;;;;;;2.00;2.00;;;;;19.72;64.29;101330.91;4885407;29;45512;-69
2021/07/11 08:02:00;;;;;;;;;3.00;3.00;;;;;19.73;64.24;101324.56;4887458;29;45504;-69
2021/07/11 08:04:25;;;;;;;;;5.75;5.00;;;;;19.78;64.58;101329.72;4892838;29;45383;-69
2021/07/11 08:06:50;;;;;;;;;2.25;2.25;;;;;19.70;63.95;101313.03;4885184;29;45442;-69
2021/07/11 08:09:17;;;;;;;;;3.50;3.50;;;;;19.83;64.04;101329.41;4888580;29;46284;-69
2021/07/11 08:11:43;;;;;;;;;2.75;2.75;;;;;19.85;64.14;101327.50;4891463;29;45288;-69
2021/07/11 08:14:09;;;;;;;;;4.00;3.25;;;;;19.85;64.43;101327.50;4878971;29;45560;-69
2021/07/11 08:16:35;;;;;;;;;3.75;3.75;;;;;19.81;64.12;101315.97;4900457;29;45772;-70
2021/07/11 08:19:00;;;;;;;;;4.25;4.25;;;;;19.82;64.11;101320.44;4902355;29;45467;-71
2021/07/11 08:21:26;;;;;;;;;2.25;2.25;;;;;19.90;64.01;101320.81;4894823;28;45376;-70
2021/07/11 08:23:52;;;;;;;;;4.00;4.00;;;;;19.94;63.75;101316.94;4890506;29;46457;-70
2021/07/11 08:26:17;;;;;;;;;3.75;3.75;;;;;19.95;63.95;101320.53;4886852;29;45752;-69
2021/07/11 08:28:42;;;;;;;;;4.00;4.00;;;;;19.93;63.60;101308.91;4873443;29;47274;-70
2021/07/11 08:31:08;;;;;;;;;3.50;3.50;;;;;19.94;63.56;101311.50;4887607;29;45361;-69
2021/07/11 08:33:33;;;;;;;;;4.00;3.00;;;;;19.98;63.58;101304.09;4894709;29;45478;-70
2021/07/11 08:35:59;;;;;;;;;3.25;3.25;;;;;20.01;63.63;101305.72;4901906;29;45474;-69
2021/07/11 08:38:24;;;;;;;;;2.25;2.25;;;;;20.07;63.25;101308.91;4896589;29;46164;-70
2021/07/11 08:40:51;;;;;;;;;2.25;2.25;;;;;20.08;63.24;101307.06;4899432;29;45428;-70
2021/07/11 08:43:18;;;;;;;;;2.50;2.50;;;;;20.09;63.10;101306.09;4883521;29;46490;-70
2021/07/11 08:45:43;;;;;;;;;2.75;2.75;;;;;20.16;63.10;101307.44;4898358;29;45760;-70
2021/07/11 08:48:10;;;;;;;;;3.00;3.00;;;;;20.18;63.30;101313.66;4889149;29;45879;-70
2021/07/11 08:50:35;;;;;;;;;1.25;1.25;;;;;20.20;63.29;101317.16;4893441;29;45766;-70
2021/07/11 08:53:03;;;;;;;;;1.75;1.75;;;;;20.18;63.14;101309.09;4901046;29;45558;-70
2021/07/11 08:55:29;;;;;;;;;3.00;3.00;;;;;20.22;63.13;101311.63;4889546;29;45377;-70
2021/07/11 08:57:57;;;;;;;;;3.50;3.00;;;;;20.11;62.87;101285.19;4896238;29;46082;-70
2021/07/11 09:00:29;;;;;;;;;3.00;3.00;;;;;20.25;62.99;101306.88;4889518;29;45875;-70
2021/07/11 09:02:56;;;;;;;;;3.25;3.25;;;;;20.25;62.56;101308.72;4894933;28;45555;-70
2021/07/11 09:05:23;;;;;;;;;2.50;2.50;;;;;20.22;62.68;101301.66;4883319;29;45526;-70
2021/07/11 09:08:13;;;;;;;;;4.00;3.25;;;;;20.26;63.15;101310.44;4896000;29;46211;-70
2021/07/11 09:10:59;;;;;;;;;4.50;4.00;;;;;20.28;63.13;101301.25;4888700;29;45396;-70
2021/07/11 09:13:28;;;;;;;;;3.25;3.25;;;;;20.34;63.19;101308.13;4890374;29;45721;-70
2021/07/11 09:15:55;;;;;;;;;3.75;3.75;;;;;20.37;62.64;101310.63;4890121;29;45543;-70
2021/07/11 09:18:23;;;;;;;;;3.00;3.00;;;;;20.43;62.36;101306.66;4891691;29;45551;-70
2021/07/11 09:20:59;;;;;;;;;3.25;3.25;;;;;20.49;62.45;101314.38;4882715;29;45464;-70
2021/07/11 09:23:26;;;;;;;;;3.50;3.50;;;;;20.53;62.30;101318.63;4897295;29;45682;-70
2021/07/11 09:26:12;;;;;;;;;3.00;3.00;;;;;20.52;61.80;101311.47;4895261;29;45665;-70
2021/07/11 09:28:50;;;;;;;;;4.50;3.25;;;;;20.56;62.81;101318.44;4885521;29;46412;-70
2021/07/11 09:31:20;;;;;;;;;5.75;4.00;;;;;20.64;62.18;101308.00;4892522;29;45386;-70
2021/07/11 09:33:54;;;;;;;;;4.00;4.00;;;;;20.68;62.50;101305.94;4887115;29;45555;-69
2021/07/11 09:36:22;;;;;;;;;4.00;4.00;;;;;20.71;62.36;101312.06;4895441;29;45454;-70
2021/07/11 09:38:49;;;;;;;;;4.75;3.75;;;;;20.67;62.43;101290.66;4894370;29;45437;-70
2021/07/11 09:41:27;;;;;;;;;3.00;3.00;;;;;20.81;61.80;101303.28;4891198;29;45439;-70
2021/07/11 09:43:55;;;;;;;;;5.00;5.00;;;;;20.87;61.97;101300.19;4896618;29;45431;-70
2021/07/11 09:46:21;;;;;;;;;4.50;4.50;;;;;20.90;61.47;101314.41;4885101;29;45331;-70
2021/07/11 09:48:48;;;;;;;;;3.25;3.25;;;;;20.92;61.75;101314.31;4882720;29;46293;-70
2021/07/11 09:51:21;;;;;;;;;4.25;4.25;;;;;20.97;60.77;101309.44;4890763;29;45648;-70
2021/07/11 09:53:48;;;;;;;;;3.25;3.00;;;;;21.02;60.46;101304.56;4893197;29;45335;-70
2021/07/11 09:56:42;;;;;;;;;3.25;3.25;;;;;21.04;61.19;101305.31;4882816;29;45865;-70
2021/07/11 09:59:10;;;;;;;;;3.00;3.00;;;;;21.07;60.98;101304.25;4892892;29;46013;-72
2021/07/11 10:01:38;;;;;;;;;3.25;3.00;;;;;21.12;60.78;101299.38;4893300;29;45407;-71
2021/07/11 10:04:04;;;;;;;;;3.00;3.00;;;;;21.12;60.26;101290.34;4899393;29;45623;-71
2021/07/11 10:06:31;;;;;;;;;3.00;3.00;;;;;21.19;60.08;101303.41;4893478;29;45603;-71
2021/07/11 10:08:59;;;;;;;;;4.75;3.00;;;;;21.22;60.59;101302.34;4889546;29;46676;-71
2021/07/11 10:11:25;;;;;;;;;3.75;3.00;;;;;21.27;60.23;101300.19;4902912;29;45660;-71
2021/07/11 10:13:51;;;;;;;;;3.75;3.75;;;;;21.31;59.46;101279.97;4902594;29;45724;-71
2021/07/11 10:16:17;;;;;;;;;2.25;2.00;;;;;21.31;59.72;101279.97;4902708;29;45447;-71
2021/07/11 10:18:45;;;;;;;;;4.50;4.00;;;;;21.34;59.58;101281.63;4886187;29;46115;-71
2021/07/11 10:21:11;;;;;;;;;3.00;3.00;;;;;21.35;59.64;101270.66;4887583;29;45452;-71
2021/07/11 10:23:39;;;;;;;;;3.00;3.00;;;;;21.40;58.31;101267.59;4894841;29;45484;-71
2021/07/11 10:26:12;;;;;;;;;2.25;2.25;;;;;21.46;59.00;101264.47;4882962;29;45565;-76
2021/07/11 10:28:39;;;;;;;;;2.25;2.25;;;;;21.55;58.67;101269.31;4899709;29;47148;-72
2021/07/11 10:31:19;;;;;;;;;4.00;3.00;;;;;21.57;58.86;101271.91;4894666;29;45632;-72
2021/07/11 10:33:46;;;;;;;;;2.00;2.00;;;;;21.62;59.32;101264.31;4882777;29;45408;-72
2021/07/11 10:36:14;;;;;;;;;3.25;3.25;;;;;21.64;58.76;101263.19;4882085;29;45341;-72
2021/07/11 10:38:51;;;;;;;;;3.00;3.00;;;;;21.65;59.29;101256.81;4881945;29;46270;-72
2021/07/11 10:41:20;;;;;;;;;3.25;3.25;;;;;21.76;58.06;101266.03;4866144;29;46007;-72
2021/07/11 10:44:00;;;;;;;;;4.75;4.75;;;;;21.79;58.04;101266.69;4882316;29;45364;-72
2021/07/11 10:46:35;;;;;;;;;4.50;4.50;;;;;21.83;58.11;101279.09;4882121;29;45395;-72
2021/07/11 10:49:15;;;;;;;;;3.25;3.25;;;;;21.87;57.90;101273.41;4883259;29;46902;-72
2021/07/11 10:51:47;;;;;;;;;5.00;4.00;;;;;21.89;57.51;101272.31;4884215;29;45450;-72
2021/07/11 10:54:26;;;;;;;;;2.75;2.75;;;;;21.91;57.20;101266.78;4886475;29;45400;-72
2021/07/11 10:56:51;;;;;;;;;3.25;2.25;;;;;21.93;56.89;101268.41;4887362;29;45445;-72
2021/07/11 10:59:35;;;;;;;;;2.50;2.50;;;;;21.94;56.26;101267.44;4886831;29;46851;-72
2021/07/11 11:02:04;;;;;;;;;3.00;3.00;;;;;21.94;56.45;101258.41;4892482;29;45303;-72
2021/07/11 11:04:30;;;;;;;;;3.75;3.75;;;;;21.97;56.49;101264.50;4895839;29;45509;-72
2021/07/11 11:06:55;;;;;;;;;3.75;3.75;;;;;21.99;56.46;101264.38;4887109;29;45367;-72
2021/07/11 11:09:40;;;;;;;;;3.25;3.25;;;;;21.98;57.20;101268.06;4891305;29;46198;-72
2021/07/11 11:12:27;;;;;;;;;5.00;4.00;;;;;22.00;56.82;101274.25;4906128;29;45482;-72
2021/07/11 11:14:59;;;;;;;;;4.00;3.50;;;;;21.99;57.21;101267.97;4893369;29;45338;-72
2021/07/11 11:17:35;;;;;;;;;4.00;4.00;;;;;21.98;56.31;101260.78;4905599;29;45224;-72
2021/07/11 11:20:05;;;;;;;;;5.00;4.50;;;;;21.98;55.93;101260.78;4887084;29;46102;-72
2021/07/11 11:22:30;;;;;;;;;3.00;3.00;;;;;21.93;55.29;101254.81;4886732;29;45342;-72
2021/07/11 11:24:58;;;;;;;;;8.00;7.25;;;;;21.99;55.57;101254.38;4887286;29;45423;-72
2021/07/11 11:27:40;;;;;;;;;13.00;13.00;;;;;21.99;55.30;101257.09;4886917;29;45167;-72